Time;durP1;ratioP1;P1;durP2;ratioP2;P2;SDS_P1;SDS_P2;PMS_P1;PMS_P2;Temp;Humidity;BMP_temperature;BMP_pressure;BME280_temperature;BME280_humidity;BME280_pressure;Samples;Min_cycle;Max_cycle;Signal;HPM_P1;HPM_P2
2022/02/06 00:00:31;;;;;;;;;;;;;;;3.75;70.68;100114.47;4944808;29;19930;-86
2022/02/06 00:02:57;;;;;;;;;;;;;;;3.77;70.17;100115.31;4942955;29;19923;-89
2022/02/06 00:05:22;;;;;;;;;;;;;;;3.82;70.29;100108.28;4942728;29;19934;-90
2022/02/06 00:07:49;;;;;;;;;;;;;;;3.80;70.05;100098.72;4944304;29;19922;-89
2022/02/06 00:10:14;;;;;;;;;;;;;;;3.75;71.00;100096.13;4944963;29;19972;-86
2022/02/06 00:12:39;;;;;;;;;;;;;;;3.79;71.67;100092.56;4945080;29;19958;-84
2022/02/06 00:15:05;;;;;;;;;;;;;;;3.81;72.25;100097.81;4938000;29;19935;-88
2022/02/06 00:17:31;;;;;;;;;;;;;;;3.80;72.99;100093.47;4943205;29;19925;-88
2022/02/06 00:19:56;;;;;;;;;;;;;;;3.82;73.03;100096.94;4942565;29;19918;-86
2022/02/06 00:25:50;;;;;;;;;;;;;;;3.86;73.71;100088.16;4945145;29;19929;-87
2022/02/06 00:31:00;;;;;;;;;;;;;;;3.99;72.80;100083.66;4903790;29;19958;-87
2022/02/06 00:41:29;;;;;;;;;;;;;;;4.13;71.25;100063.38;4944317;29;20370;-84
2022/02/06 00:43:55;;;;;;;;;;;;;;;4.17;71.15;100069.44;4941404;29;20017;-84
2022/02/06 00:46:22;;;;;;;;;;;;;;;4.19;72.55;100065.91;4944061;29;20839;-85
2022/02/06 00:48:55;;;;;;;;;;;;;;;4.19;72.80;100065.03;4942373;29;20017;-85
2022/02/06 00:51:30;;;;;;;;;;;;;;;4.26;73.46;100071.97;4943469;29;20283;-86
2022/02/06 00:53:56;;;;;;;;;;;;;;;4.51;74.67;100075.13;4943556;29;19922;-89
2022/02/06 00:56:21;;;;;;;;;;;;;;;4.59;76.14;100061.03;4944990;29;20278;-84
2022/02/06 00:58:46;;;;;;;;;;;;;;;4.66;78.19;100060.94;4940615;29;19929;-84
2022/02/06 01:01:12;;;;;;;;;;;;;;;4.66;79.86;100049.53;4939584;29;19930;-84
2022/02/06 01:03:37;;;;;;;;;;;;;;;4.68;81.05;100037.28;4940392;29;19966;-84
2022/02/06 04:22:03;;;;;;;;;;;;;;;2.53;87.04;99790.09;5509544;23;19950;-83
2022/02/06 04:24:28;;;;;;;;;;;;;;;2.54;87.85;99786.63;4950800;29;19931;-83
2022/02/06 04:26:53;;;;;;;;;;;;;;;2.57;88.16;99785.69;4936624;29;19914;-84
2022/02/06 04:29:19;;;;;;;;;;;;;;;2.51;88.28;99776.19;4954140;29;20365;-84
2022/02/06 04:31:47;;;;;;;;;;;;;;;2.32;88.16;99791.19;4936516;29;19935;-85
2022/02/06 04:34:14;;;;;;;;;;;;;;;2.25;87.06;99798.22;4954000;29;20325;-90
2022/02/06 04:36:49;;;;;;;;;;;;;;;2.03;87.07;99791.41;4953024;29;19918;-84
2022/02/06 04:42:15;;;;;;;;;;;;;;;2.04;87.23;99790.53;4909370;29;20504;-91
2022/02/06 05:30:20;;;;;;;;;;;;;;;3.18;100.00;99685.50;4957291;29;20293;-87
2022/02/06 05:32:58;;;;;;;;;;;;;;;3.15;100.00;99674.22;4957217;29;19929;-85
2022/02/06 05:35:24;;;;;;;;;;;;;;;3.23;100.00;99674.97;4957032;29;19922;-87
2022/02/06 05:37:50;;;;;;;;;;;;;;;3.29;100.00;99664.41;4955872;29;19926;-83
2022/02/06 05:40:15;;;;;;;;;;;;;;;3.24;100.00;99661.00;4957007;29;19925;-83
2022/02/06 05:42:42;;;;;;;;;;;;;;;3.25;100.00;99649.63;4957186;29;19919;-83
2022/02/06 05:45:08;;;;;;;;;;;;;;;3.28;100.00;99649.56;4956991;29;19915;-82
2022/02/06 05:47:33;;;;;;;;;;;;;;;3.27;100.00;99645.22;4939496;29;20606;-83
2022/02/06 05:49:59;;;;;;;;;;;;;;;3.19;100.00;99640.13;4957005;29;20474;-83
2022/02/06 05:52:24;;;;;;;;;;;;;;;3.23;100.00;99640.94;4955743;29;19977;-84
2022/02/06 05:54:50;;;;;;;;;;;;;;;3.20;99.21;99639.19;4956950;29;19918;-84
2022/02/06 05:57:15;;;;;;;;;;;;;;;3.27;97.93;99627.75;4956916;29;19981;-84
2022/02/06 13:51:10;;;;;;;;;;;;;;;6.96;100.00;98788.78;5737569;23;19934;-88
2022/02/06 13:53:36;;;;;;;;;;;;;;;6.99;100.00;98773.69;4933330;29;20385;-87
2022/02/06 13:56:04;;;;;;;;;;;;;;;7.03;100.00;98771.75;4935789;29;19981;-83
2022/02/06 13:58:30;;;;;;;;;;;;;;;7.06;100.00;98775.09;4920266;29;20412;-83
2022/02/06 14:01:05;;;;;;;;;;;;;;;7.09;100.00;98768.84;4920659;29;19926;-91
2022/02/06 14:03:52;;;;;;;;;;;;;;;7.14;100.00;98777.41;4935833;29;19925;-87
2022/02/06 14:06:32;;;;;;;;;;;;;;;7.20;100.00;98755.22;4934514;29;20014;-85
2022/02/06 14:09:00;;;;;;;;;;;;;;;7.22;100.00;98745.44;4919684;29;20362;-86
2022/02/06 14:11:29;;;;;;;;;;;;;;;7.26;100.00;98761.03;4920450;29;19991;-91
2022/02/06 14:14:14;;;;;;;;;;;;;;;7.27;100.00;98746.97;4937472;29;20017;-85
2022/02/06 14:16:43;;;;;;;;;;;;;;;7.32;100.00;98732.69;4920282;29;19937;-86
2022/02/06 14:19:10;;;;;;;;;;;;;;;7.33;100.00;98715.97;4937857;29;20346;-82
2022/02/06 14:21:43;;;;;;;;;;;;;;;7.37;100.00;98725.44;4936260;29;19926;-83
2022/02/06 14:24:08;;;;;;;;;;;;;;;7.40;100.00;98731.44;4920523;29;19981;-83
2022/02/06 14:26:34;;;;;;;;;;;;;;;6.56;100.00;98712.38;4936242;29;20362;-83
2022/02/06 14:28:59;;;;;;;;;;;;;;;5.11;100.00;98728.69;4937325;29;20309;-87
2022/02/06 14:31:33;;;;;;;;;;;;;;;4.59;97.03;98735.81;4937408;29;20009;-86
2022/02/06 14:34:18;;;;;;;;;;;;;;;4.10;94.00;98707.75;4937210;29;19937;-91
2022/02/06 14:37:01;;;;;;;;;;;;;;;3.90;92.09;98720.66;4935691;29;19978;-86
2022/02/06 14:39:33;;;;;;;;;;;;;;;3.61;90.75;98723.31;4935577;29;20369;-86
2022/02/06 14:42:08;;;;;;;;;;;;;;;3.65;90.22;98718.81;4937057;29;19919;-86
2022/02/06 14:44:34;;;;;;;;;;;;;;;3.37;89.52;98700.50;4936581;29;20058;-84
2022/02/06 14:46:59;;;;;;;;;;;;;;;3.21;89.02;98700.13;4920002;29;20017;-84
2022/02/06 14:49:27;;;;;;;;;;;;;;;3.00;89.16;98697.25;4936775;29;19930;-84
2022/02/06 14:51:53;;;;;;;;;;;;;;;2.94;88.43;98681.72;4934474;29;20294;-91
2022/02/06 14:54:21;;;;;;;;;;;;;;;2.88;87.91;98680.13;4936949;29;19922;-85
2022/02/06 14:56:48;;;;;;;;;;;;;;;2.67;87.21;98655.44;4936639;29;19945;-89
2022/02/06 14:59:13;;;;;;;;;;;;;;;2.67;86.29;98652.81;4919741;29;19923;-87
2022/02/06 15:01:39;;;;;;;;;;;;;;;2.53;85.38;98678.53;4935162;29;19930;-88
2022/02/06 15:04:04;;;;;;;;;;;;;;;2.30;84.33;98668.72;4936492;29;19925;-89
2022/02/06 15:06:30;;;;;;;;;;;;;;;2.44;83.97;98671.81;4935152;29;20053;-90
2022/02/06 15:08:55;;;;;;;;;;;;;;;2.27;83.16;98646.09;4936507;29;19973;-86
2022/02/06 15:11:21;;;;;;;;;;;;;;;2.18;83.16;98680.31;4935354;29;19926;-87
2022/02/06 15:13:46;;;;;;;;;;;;;;;2.02;82.72;98658.97;4936258;29;19922;-87
2022/02/06 15:16:17;;;;;;;;;;;;;;;2.00;83.02;98647.69;4936515;29;20339;-87
2022/02/06 15:18:53;;;;;;;;;;;;;;;1.90;83.72;98649.69;4935268;29;19978;-86
2022/02/06 15:21:19;;;;;;;;;;;;;;;1.85;83.75;98669.00;4933508;29;20358;-88
2022/02/06 15:23:44;;;;;;;;;;;;;;;1.85;83.82;98664.66;4936218;29;19922;-87
2022/02/06 15:26:09;;;;;;;;;;;;;;;1.78;82.71;98645.63;4936452;29;19977;-84
2022/02/06 15:28:35;;;;;;;;;;;;;;;1.89;85.62;98647.97;4936141;29;20318;-87
2022/02/06 15:31:00;;;;;;;;;;;;;;;2.05;90.04;98652.81;4936218;29;19918;-89
2022/02/06 15:33:25;;;;;;;;;;;;;;;2.36;94.49;98642.38;4918971;29;20377;-85
2022/02/06 15:35:51;;;;;;;;;;;;;;;2.59;97.24;98639.13;4934740;29;20014;-83
2022/02/06 15:38:18;;;;;;;;;;;;;;;2.73;99.11;98644.81;4918993;29;19923;-87
2022/02/06 15:40:44;;;;;;;;;;;;;;;2.71;100.00;98638.78;4917940;29;20302;-82
2022/02/06 15:43:09;;;;;;;;;;;;;;;2.71;100.00;98646.63;4918838;29;19926;-87
2022/02/06 15:45:35;;;;;;;;;;;;;;;2.83;100.00;98636.69;4935088;29;20357;-83
2022/02/06 15:48:01;;;;;;;;;;;;;;;2.86;100.00;98639.22;4918715;29;19919;-86
2022/02/06 15:50:26;;;;;;;;;;;;;;;2.86;100.00;98631.38;4917274;29;19923;-84
2022/02/06 15:52:51;;;;;;;;;;;;;;;2.95;100.00;98614.53;4927702;29;19930;-85
2022/02/06 15:55:16;;;;;;;;;;;;;;;2.95;100.00;98614.53;4935427;29;20267;-87
2022/02/06 15:57:44;;;;;;;;;;;;;;;2.98;100.00;98630.97;4934755;29;20474;-83
2022/02/06 16:00:09;;;;;;;;;;;;;;;3.06;100.00;98602.84;4933723;29;19923;-88
2022/02/06 16:02:35;;;;;;;;;;;;;;;3.11;100.00;98613.13;4932252;29;19919;-90
2022/02/06 16:05:01;;;;;;;;;;;;;;;3.05;100.00;98629.06;4935025;29;19923;-88
2022/02/06 16:07:28;;;;;;;;;;;;;;;3.05;100.00;98616.81;4934077;29;19919;-88
2022/02/06 16:09:53;;;;;;;;;;;;;;;3.05;100.00;98608.97;4950460;29;19941;-83
2022/02/06 16:12:19;;;;;;;;;;;;;;;3.05;100.00;98602.88;4934149;29;20378;-83
2022/02/06 16:14:44;;;;;;;;;;;;;;;3.11;100.00;98593.97;4949891;29;20342;-89
2022/02/06 16:17:10;;;;;;;;;;;;;;;3.12;100.00;98595.69;4935367;29;19933;-84
2022/02/06 16:19:36;;;;;;;;;;;;;;;3.09;100.00;98579.19;4935170;29;19918;-87
2022/02/06 16:22:05;;;;;;;;;;;;;;;3.17;100.00;98578.06;4932969;29;19957;-87
2022/02/06 16:24:34;;;;;;;;;;;;;;;3.27;100.00;98564.63;4949562;28;20009;-85
2022/02/06 16:27:00;;;;;;;;;;;;;;;3.22;100.00;98595.34;4933383;29;20014;-83
2022/02/06 16:29:26;;;;;;;;;;;;;;;3.14;99.98;98591.25;4933946;29;20023;-88
2022/02/06 16:31:52;;;;;;;;;;;;;;;3.20;99.38;98581.44;4933849;29;19922;-85
2022/02/06 16:34:17;;;;;;;;;;;;;;;3.31;98.84;98575.03;4933852;29;19947;-90
2022/02/06 16:36:43;;;;;;;;;;;;;;;3.37;98.18;98591.38;4933580;29;19969;-88
2022/02/06 16:39:08;;;;;;;;;;;;;;;3.37;97.27;98580.91;4948384;29;19922;-84
2022/02/06 16:41:33;;;;;;;;;;;;;;;3.44;96.65;98592.03;4934891;29;20033;-85
2022/02/06 16:43:59;;;;;;;;;;;;;;;3.42;95.82;98581.59;4933776;29;19930;-87
2022/02/06 16:46:25;;;;;;;;;;;;;;;3.37;95.04;98586.13;4933421;29;19926;-86
2022/02/06 16:48:50;;;;;;;;;;;;;;;3.42;94.24;98584.22;4932779;29;19930;-89
2022/02/06 16:51:16;;;;;;;;;;;;;;;3.44;93.54;98597.25;4930872;29;19923;-87
2022/02/06 16:53:45;;;;;;;;;;;;;;;3.45;92.63;98599.84;4932086;29;20293;-84
2022/02/06 16:56:10;;;;;;;;;;;;;;;3.41;91.92;98603.44;4916035;29;19927;-85
2022/02/06 16:58:35;;;;;;;;;;;;;;;3.44;91.37;98603.34;4914959;29;19930;-85
2022/02/06 17:01:01;;;;;;;;;;;;;;;3.42;90.92;98620.88;4930568;29;19926;-87
2022/02/06 17:03:26;;;;;;;;;;;;;;;3.39;90.21;98644.53;4932856;29;20298;-86
2022/02/06 17:05:52;;;;;;;;;;;;;;;3.37;89.64;98637.66;4932290;29;19923;-88
2022/02/06 17:08:17;;;;;;;;;;;;;;;3.37;89.31;98648.13;4916168;29;19930;-86
2022/02/06 17:10:44;;;;;;;;;;;;;;;3.36;88.84;98631.56;4916044;29;19935;-84
2022/02/06 17:13:10;;;;;;;;;;;;;;;3.38;88.50;98635.00;4915468;29;20298;-86
2022/02/06 17:15:35;;;;;;;;;;;;;;;3.40;88.47;98641.03;4919495;29;19930;-86
2022/02/06 17:18:00;;;;;;;;;;;;;;;3.37;88.38;98683.03;4936419;29;20029;-86
2022/02/06 17:20:25;;;;;;;;;;;;;;;3.44;88.82;98676.69;4918934;29;20737;-88
2022/02/06 17:22:51;;;;;;;;;;;;;;;3.47;88.71;98662.63;4937062;29;19922;-85
2022/02/06 17:25:16;;;;;;;;;;;;;;;3.50;87.99;98646.00;4937392;29;20571;-88
2022/02/06 17:27:42;;;;;;;;;;;;;;;3.47;87.69;98639.06;4936626;29;19931;-84
2022/02/06 17:30:07;;;;;;;;;;;;;;;3.48;87.42;98647.78;4935742;29;19954;-83
2022/02/06 17:32:33;;;;;;;;;;;;;;;3.43;87.00;98654.03;4936661;29;20398;-90
2022/02/06 17:34:59;;;;;;;;;;;;;;;3.44;87.04;98650.50;4936509;29;19926;-85
2022/02/06 17:37:25;;;;;;;;;;;;;;;3.43;86.54;98659.28;4936136;29;19927;-84
2022/02/06 17:39:53;;;;;;;;;;;;;;;3.44;86.33;98666.19;4936996;29;19935;-89
2022/02/06 17:42:20;;;;;;;;;;;;;;;3.38;85.95;98650.72;4937369;29;20021;-85
2022/02/06 17:44:45;;;;;;;;;;;;;;;3.47;85.87;98646.09;4934494;29;20655;-84
2022/02/06 17:47:10;;;;;;;;;;;;;;;3.45;85.63;98633.88;4936905;29;19986;-86
2022/02/06 17:49:35;;;;;;;;;;;;;;;3.42;85.06;98633.97;4937553;29;19926;-88
2022/02/06 17:52:01;;;;;;;;;;;;;;;3.42;84.45;98633.97;4921394;29;19923;-84
2022/02/06 17:54:27;;;;;;;;;;;;;;;3.39;83.88;98631.47;4937141;29;19922;-86
2022/02/06 17:56:52;;;;;;;;;;;;;;;3.39;83.58;98628.00;4936603;29;20363;-92
2022/02/06 17:59:17;;;;;;;;;;;;;;;3.39;83.24;98636.69;4936938;29;20429;-87
2022/02/06 18:01:42;;;;;;;;;;;;;;;3.36;82.64;98635.94;4936656;29;19937;-85
2022/02/06 18:04:08;;;;;;;;;;;;;;;3.38;82.56;98647.22;4935625;29;19974;-88
2022/02/06 18:06:35;;;;;;;;;;;;;;;3.43;82.50;98648.78;4934765;29;20091;-85
2022/02/06 18:09:01;;;;;;;;;;;;;;;3.40;82.15;98651.50;4932248;29;19926;-90
2022/02/06 18:11:26;;;;;;;;;;;;;;;3.38;81.90;98660.31;4936735;29;19923;-89
2022/02/06 18:13:52;;;;;;;;;;;;;;;3.38;81.41;98650.72;4934823;29;19942;-83
2022/02/06 18:16:17;;;;;;;;;;;;;;;3.43;81.63;98643.56;4935360;29;19930;-91
2022/02/06 18:18:42;;;;;;;;;;;;;;;3.40;81.37;98659.38;4935847;29;20058;-83
2022/02/06 18:21:08;;;;;;;;;;;;;;;3.41;80.89;98653.19;4935444;29;19958;-89
2022/02/06 18:23:34;;;;;;;;;;;;;;;3.41;80.74;98661.06;4936615;29;19959;-85
2022/02/06 18:25:59;;;;;;;;;;;;;;;3.37;80.57;98643.75;4935587;29;19922;-84
2022/02/06 18:28:25;;;;;;;;;;;;;;;3.41;80.63;98640.09;4933971;29;19922;-85
2022/02/06 18:30:51;;;;;;;;;;;;;;;3.44;80.53;98644.41;4935192;29;20001;-84
2022/02/06 18:33:16;;;;;;;;;;;;;;;3.43;80.16;98637.44;4950371;29;19974;-85
2022/02/06 18:35:42;;;;;;;;;;;;;;;3.41;80.01;98632.25;4932250;29;19927;-88
2022/02/06 18:38:07;;;;;;;;;;;;;;;3.38;79.54;98608.81;4933445;29;20009;-85
2022/02/06 18:40:33;;;;;;;;;;;;;;;3.39;79.36;98613.13;4934510;29;19929;-85
2022/02/06 18:42:58;;;;;;;;;;;;;;;3.39;79.17;98597.41;4934720;29;19966;-88
2022/02/06 18:45:23;;;;;;;;;;;;;;;3.41;79.11;98590.34;4935078;29;19926;-86
2022/02/06 18:47:49;;;;;;;;;;;;;;;3.40;78.89;98585.19;4934874;29;20835;-84
2022/02/06 18:50:14;;;;;;;;;;;;;;;3.40;78.54;98588.66;4934783;29;19953;-84
2022/02/06 18:52:40;;;;;;;;;;;;;;;3.41;78.34;98586.88;4934727;29;19988;-84
2022/02/06 18:55:07;;;;;;;;;;;;;;;3.38;78.31;98581.75;4950484;28;19923;-84
2022/02/06 18:57:33;;;;;;;;;;;;;;;3.41;78.34;98566.78;4935859;29;20386;-84
2022/02/06 19:00:01;;;;;;;;;;;;;;;3.41;78.31;98565.94;4932735;29;19958;-84
2022/02/06 19:02:26;;;;;;;;;;;;;;;3.41;77.98;98552.84;4933803;29;20049;-90
2022/02/06 19:04:51;;;;;;;;;;;;;;;3.44;77.92;98539.66;4932837;29;20418;-91
2022/02/06 19:07:19;;;;;;;;;;;;;;;3.44;78.05;98530.03;4931500;29;20387;-84
2022/02/06 19:09:44;;;;;;;;;;;;;;;3.48;77.98;98529.91;4932112;29;19931;-86
2022/02/06 19:12:11;;;;;;;;;;;;;;;3.48;78.01;98530.78;4933033;29;19919;-85
2022/02/06 19:14:37;;;;;;;;;;;;;;;3.51;78.08;98519.34;4928145;29;19926;-86
2022/02/06 19:17:02;;;;;;;;;;;;;;;3.53;77.78;98501.84;4948579;29;20334;-84
2022/02/06 19:19:28;;;;;;;;;;;;;;;3.54;77.87;98529.72;4950079;29;19918;-84
2022/02/06 19:21:53;;;;;;;;;;;;;;;3.57;77.83;98509.50;4934112;29;19965;-90
2022/02/06 19:24:18;;;;;;;;;;;;;;;3.67;78.39;98525.78;4934119;29;19922;-85
2022/02/06 19:26:44;;;;;;;;;;;;;;;3.68;78.50;98542.34;4933974;29;19923;-84
2022/02/06 19:29:09;;;;;;;;;;;;;;;3.68;78.79;98569.38;4933811;29;19927;-86
2022/02/06 19:31:36;;;;;;;;;;;;;;;3.74;79.58;98563.09;4933994;29;20382;-83
2022/02/06 19:34:09;;;;;;;;;;;;;;;3.77;79.90;98558.59;4949021;29;19919;-90
2022/02/06 19:36:34;;;;;;;;;;;;;;;3.72;79.48;98530.84;4932174;29;19922;-86
2022/02/06 19:38:59;;;;;;;;;;;;;;;3.69;79.18;98523.94;4933660;29;19923;-84
2022/02/06 19:41:25;;;;;;;;;;;;;;;3.74;79.25;98531.66;4935050;29;19915;-84
2022/02/06 19:43:51;;;;;;;;;;;;;;;3.75;79.38;98522.88;4931889;29;19981;-84
2022/02/06 19:46:17;;;;;;;;;;;;;;;3.77;79.33;98547.28;4934664;29;19919;-85
2022/02/06 19:48:44;;;;;;;;;;;;;;;3.88;79.79;98526.78;4933496;29;19922;-84
2022/02/06 19:51:10;;;;;;;;;;;;;;;3.82;79.13;98509.50;4931975;29;19933;-88
2022/02/06 19:53:36;;;;;;;;;;;;;;;3.83;78.59;98518.25;4931244;29;19927;-85
2022/02/06 19:56:02;;;;;;;;;;;;;;;3.84;78.27;98509.44;4929912;29;19923;-85
2022/02/06 19:58:28;;;;;;;;;;;;;;;3.85;78.00;98518.19;4932164;29;19926;-84
2022/02/06 20:00:53;;;;;;;;;;;;;;;3.90;77.90;98508.38;4934179;29;19922;-85
2022/02/06 20:03:18;;;;;;;;;;;;;;;3.91;77.97;98504.84;4931266;29;19930;-85
2022/02/06 20:05:44;;;;;;;;;;;;;;;3.92;77.70;98506.56;4929387;29;19920;-84
2022/02/06 20:08:10;;;;;;;;;;;;;;;3.94;77.38;98502.97;4933732;29;19930;-86
2022/02/06 20:10:36;;;;;;;;;;;;;;;4.02;77.21;98512.31;4931733;29;20393;-88
2022/02/06 20:13:01;;;;;;;;;;;;;;;3.97;77.10;98487.16;4948547;28;19922;-84
2022/02/06 20:15:27;;;;;;;;;;;;;;;3.97;77.38;98475.78;4933198;29;19922;-88
2022/02/06 20:17:53;;;;;;;;;;;;;;;3.95;76.84;98488.09;4932731;29;20370;-89
2022/02/06 20:20:19;;;;;;;;;;;;;;;4.04;76.78;98493.00;4931747;29;19925;-89
2022/02/06 20:22:44;;;;;;;;;;;;;;;4.04;76.27;98482.53;4934536;29;19919;-89
2022/02/06 20:25:10;;;;;;;;;;;;;;;4.11;76.08;98478.75;4934160;29;19926;-84
2022/02/06 20:27:35;;;;;;;;;;;;;;;4.08;76.15;98493.75;4931598;29;20014;-86
2022/02/06 20:30:01;;;;;;;;;;;;;;;4.09;76.22;98490.22;4932035;29;19982;-87
2022/02/06 20:32:27;;;;;;;;;;;;;;;4.08;75.98;98480.63;4933455;29;19923;-84
2022/02/06 20:34:53;;;;;;;;;;;;;;;4.07;75.80;98484.16;4933922;29;19919;-84
2022/02/06 20:37:18;;;;;;;;;;;;;;;4.12;76.00;98471.75;4923670;29;20449;-86
2022/02/06 20:39:43;;;;;;;;;;;;;;;4.16;75.94;98487.31;4925285;29;19923;-87
2022/02/06 20:42:08;;;;;;;;;;;;;;;4.33;76.47;98467.47;4932881;29;19930;-91
2022/02/06 20:44:38;;;;;;;;;;;;;;;4.42;77.12;98472.34;4931933;29;19946;-79
2022/02/06 20:47:05;;;;;;;;;;;;;;;4.79;80.95;98486.66;4931129;29;19978;-86
2022/02/06 20:49:31;;;;;;;;;;;;;;;4.60;80.73;98468.16;4930086;29;19926;-86
2022/02/06 20:51:56;;;;;;;;;;;;;;;4.54;80.10;98460.50;4931415;29;19950;-86
2022/02/06 20:54:22;;;;;;;;;;;;;;;4.50;79.62;98464.16;4915178;29;19981;-89
2022/02/06 20:56:47;;;;;;;;;;;;;;;4.50;78.90;98462.41;4933457;29;20322;-85
2022/02/06 20:59:12;;;;;;;;;;;;;;;4.46;78.50;98487.03;4933243;29;19919;-86
2022/02/06 21:01:38;;;;;;;;;;;;;;;4.46;77.94;98500.16;4914818;29;19919;-86
2022/02/06 21:04:03;;;;;;;;;;;;;;;4.46;77.66;98488.81;4932544;29;20395;-88
2022/02/06 21:06:28;;;;;;;;;;;;;;;4.45;77.50;98482.72;4915789;29;19990;-85
2022/02/06 21:08:54;;;;;;;;;;;;;;;4.53;78.23;98506.03;4916185;29;20417;-86
2022/02/06 21:11:20;;;;;;;;;;;;;;;4.57;78.77;98499.75;4916216;29;19978;-85
2022/02/06 21:13:45;;;;;;;;;;;;;;;4.48;78.47;98514.09;4931833;29;19919;-85
2022/02/06 21:16:11;;;;;;;;;;;;;;;4.58;78.61;98566.19;4933376;29;19927;-87
2022/02/06 21:18:37;;;;;;;;;;;;;;;4.60;78.84;98599.34;4933512;29;19925;-86
2022/02/06 21:21:03;;;;;;;;;;;;;;;4.62;79.62;98600.13;4915423;29;19915;-86
2022/02/06 21:23:28;;;;;;;;;;;;;;;4.63;79.96;98580.00;4916572;29;20274;-89
2022/02/06 21:25:54;;;;;;;;;;;;;;;4.66;80.00;98575.50;4916371;29;19923;-90
2022/02/06 21:28:21;;;;;;;;;;;;;;;4.71;80.89;98560.41;4932680;29;19993;-85
2022/02/06 21:30:47;;;;;;;;;;;;;;;4.69;80.59;98564.00;4932652;29;20385;-86
2022/02/06 21:33:14;;;;;;;;;;;;;;;4.71;80.13;98564.81;4912809;29;19998;-87
2022/02/06 21:35:40;;;;;;;;;;;;;;;4.67;79.27;98561.44;4928696;29;19922;-90
2022/02/06 21:38:07;;;;;;;;;;;;;;;4.67;78.87;98553.56;4915328;29;20421;-87
2022/02/06 21:40:32;;;;;;;;;;;;;;;4.72;78.82;98563.88;4913729;29;19961;-87
2022/02/06 21:42:59;;;;;;;;;;;;;;;4.72;78.42;98550.78;4931375;29;19974;-86
2022/02/06 21:45:25;;;;;;;;;;;;;;;4.72;77.95;98538.53;4930225;29;19927;-87
2022/02/06 21:47:51;;;;;;;;;;;;;;;4.75;77.79;98541.94;4931058;29;20286;-87
2022/02/06 21:50:17;;;;;;;;;;;;;;;4.75;77.37;98553.28;4931694;29;19923;-88
2022/02/06 21:52:43;;;;;;;;;;;;;;;4.76;76.77;98559.41;4932055;29;19929;-87
2022/02/06 21:55:09;;;;;;;;;;;;;;;4.76;76.55;98555.00;4915496;29;19919;-88
2022/02/06 21:57:37;;;;;;;;;;;;;;;4.79;76.03;98557.50;4931582;29;19958;-89
2022/02/06 22:00:03;;;;;;;;;;;;;;;4.78;75.37;98563.66;4930401;29;19927;-88
2022/02/06 22:02:29;;;;;;;;;;;;;;;4.75;75.43;98548.03;4936979;29;19962;-88
2022/02/06 22:04:54;;;;;;;;;;;;;;;4.79;75.28;98544.38;4935204;29;19957;-87
2022/02/06 22:07:32;;;;;;;;;;;;;;;4.77;74.63;98540.97;4934080;29;19997;-89
2022/02/06 22:23:42;;;;;;;;;;;;;;;4.96;76.10;98571.72;4936139;29;20366;-87
2022/02/06 22:31:12;;;;;;;;;;;;;;;5.02;76.64;98645.84;4936563;29;20310;-88
2022/02/06 22:33:38;;;;;;;;;;;;;;;5.11;77.64;98662.19;4934976;29;19915;-86
2022/02/06 22:36:04;;;;;;;;;;;;;;;5.11;77.34;98675.31;4935152;29;19942;-87
2022/02/06 22:38:29;;;;;;;;;;;;;;;5.06;77.57;98676.34;4919074;29;20592;-89
2022/02/06 22:40:57;;;;;;;;;;;;;;;5.08;77.06;98668.41;4918445;29;20018;-87
2022/02/06 22:43:23;;;;;;;;;;;;;;;5.05;76.88;98700.88;4935927;29;19927;-90
2022/02/06 22:45:48;;;;;;;;;;;;;;;5.08;77.00;98723.56;4936116;29;19955;-87
2022/02/06 22:48:13;;;;;;;;;;;;;;;5.14;77.08;98733.81;4934301;29;19982;-88
2022/02/06 22:50:38;;;;;;;;;;;;;;;5.09;76.74;98725.28;4934965;29;19957;-89
2022/02/06 22:53:04;;;;;;;;;;;;;;;5.13;76.59;98744.38;4929351;29;20329;-85
2022/02/06 22:55:30;;;;;;;;;;;;;;;5.14;76.51;98760.09;4934472;29;19970;-88
2022/02/06 22:57:55;;;;;;;;;;;;;;;5.15;76.52;98776.69;4936075;29;20005;-85
2022/02/06 23:00:37;;;;;;;;;;;;;;;5.19;77.59;98763.41;4935089;29;20298;-85
2022/02/06 23:03:03;;;;;;;;;;;;;;;5.23;77.93;98738.75;4935778;29;19919;-88
2022/02/06 23:05:28;;;;;;;;;;;;;;;5.21;77.68;98761.56;4934701;29;19922;-85
2022/02/06 23:07:53;;;;;;;;;;;;;;;5.21;77.44;98763.34;4935585;29;19982;-88
2022/02/06 23:10:19;;;;;;;;;;;;;;;5.23;77.07;98775.50;4935571;29;19934;-85
2022/02/06 23:12:44;;;;;;;;;;;;;;;5.21;76.81;98777.31;4935348;29;19975;-85
2022/02/06 23:15:10;;;;;;;;;;;;;;;5.24;76.52;98779.84;4935529;29;19931;-87
2022/02/06 23:17:35;;;;;;;;;;;;;;;5.26;76.38;98785.91;4934052;29;19926;-85
2022/02/06 23:20:00;;;;;;;;;;;;;;;5.26;76.34;98803.41;4935760;29;19923;-84
2022/02/06 23:22:26;;;;;;;;;;;;;;;5.32;76.61;98794.47;4934337;29;19934;-85
2022/02/06 23:24:52;;;;;;;;;;;;;;;5.27;76.01;98795.47;4935285;29;19929;-88
2022/02/06 23:27:17;;;;;;;;;;;;;;;5.28;75.78;98804.19;4934049;29;19919;-86
2022/02/06 23:29:42;;;;;;;;;;;;;;;5.28;75.57;98810.34;4936163;29;19958;-85
2022/02/06 23:32:08;;;;;;;;;;;;;;;5.26;75.22;98806.91;4936193;29;20009;-87
2022/02/06 23:34:33;;;;;;;;;;;;;;;5.30;75.06;98801.53;4934790;29;20365;-87
2022/02/06 23:36:58;;;;;;;;;;;;;;;5.28;75.00;98789.31;4934781;29;19925;-87
2022/02/06 23:39:24;;;;;;;;;;;;;;;5.32;74.60;98794.47;4931262;29;19942;-85
2022/02/06 23:41:49;;;;;;;;;;;;;;;5.31;74.62;98804.09;4931502;29;19927;-90
2022/02/06 23:44:19;;;;;;;;;;;;;;;5.33;74.60;98811.91;4934224;29;20013;-85
2022/02/06 23:46:50;;;;;;;;;;;;;;;5.33;74.68;98814.53;4934911;29;19938;-85
2022/02/06 23:49:16;;;;;;;;;;;;;;;5.37;74.86;98819.63;4932618;29;19927;-87
2022/02/06 23:51:55;;;;;;;;;;;;;;;5.36;74.92;98838.97;4932967;29;19942;-85
2022/02/06 23:54:25;;;;;;;;;;;;;;;5.35;74.57;98839.00;4935624;29;20286;-86
